createdAt,value
2017-07-19T00:00:33.727Z,96.13
2017-07-19T00:01:33.754Z,96.03
2017-07-19T00:02:48.375Z,96.32
2017-07-19T00:03:33.790Z,96.61
2017-07-19T00:04:33.821Z,96.42
2017-07-19T00:05:33.539Z,96.22
2017-07-19T00:06:33.868Z,96.32
2017-07-19T00:07:33.909Z,96.51
2017-07-19T00:08:33.924Z,96.13
2017-07-19T00:09:33.937Z,96.51
2017-07-19T00:10:33.977Z,96.61
2017-07-19T00:11:33.987Z,97.09
2017-07-19T00:12:34.021Z,96.61
2017-07-19T00:13:34.049Z,96.99
2017-07-19T00:15:34.097Z,97.14
2017-07-19T00:16:34.112Z,97.28
2017-07-19T00:17:34.146Z,97.56
2017-07-19T00:18:34.155Z,98.05
2017-07-19T00:19:34.193Z,98.14
2017-07-19T00:20:34.201Z,98.1
2017-07-19T00:21:34.240Z,98.28
2017-07-19T00:22:34.269Z,98.19
2017-07-19T00:23:34.283Z,98.47
2017-07-19T00:24:34.004Z,98.28
2017-07-19T00:25:34.329Z,98.28
2017-07-19T00:26:34.364Z,98.19
2017-07-19T00:27:34.384Z,98.47
2017-07-19T00:28:34.420Z,98.19
2017-07-19T00:29:34.427Z,98.57
2017-07-19T00:30:34.462Z,97.9
2017-07-19T00:31:34.484Z,98.19
2017-07-19T00:32:34.514Z,98.1
2017-07-19T00:33:34.522Z,98.28
2017-07-19T00:34:49.155Z,99.05
2017-07-19T00:35:34.582Z,98.96
2017-07-19T00:36:34.300Z,98.96
2017-07-19T00:37:34.626Z,98.38
2017-07-19T00:38:34.645Z,98.47
2017-07-19T00:39:34.683Z,98.57
2017-07-19T00:40:34.693Z,98.57
2017-07-19T00:41:34.731Z,98.96
2017-07-19T00:42:34.753Z,98.57
2017-07-19T00:43:34.518Z,98.57
2017-07-19T00:44:34.786Z,99.05
2017-07-19T00:45:34.817Z,99.15
2017-07-19T00:46:34.850Z,98.67
2017-07-19T00:47:34.875Z,98.76
2017-07-19T00:48:34.945Z,99.53
2017-07-19T00:49:34.915Z,99.99
2017-07-19T00:50:49.546Z,99.91
2017-07-19T00:51:34.962Z,99.91
2017-07-19T00:52:34.999Z,99.91
2017-07-19T00:53:35.011Z,99.43
2017-07-19T00:54:35.043Z,99.91
2017-07-19T00:55:35.071Z,99.82
2017-07-19T00:56:35.095Z,99.53
2017-07-19T00:57:34.805Z,99.91
2017-07-19T00:58:35.142Z,99.99
2017-07-19T01:01:34.894Z,99.99
2017-07-19T01:03:35.271Z,99.99
2017-07-19T01:06:49.930Z,99.99
2017-07-19T01:07:35.363Z,99.99
2017-07-19T01:08:35.385Z,99.99
2017-07-19T01:09:35.455Z,99.99
2017-07-19T01:10:35.424Z,99.99
2017-07-19T01:11:35.459Z,99.99
2017-07-19T01:12:35.169Z,99.99
2017-07-19T01:13:35.509Z,99.99
2017-07-19T01:15:35.541Z,99.99
2017-07-19T01:16:35.581Z,99.99
2017-07-19T01:17:35.601Z,99.99
2017-07-19T01:18:35.623Z,99.99
2017-07-19T01:19:35.652Z,99.99
2017-07-19T01:20:35.685Z,99.99
2017-07-19T01:21:35.689Z,99.99
2017-07-19T01:22:50.317Z,99.99
2017-07-19T01:23:35.739Z,99.99
2017-07-19T01:24:35.756Z,99.99
2017-07-19T01:26:35.814Z,99.99
2017-07-19T01:27:35.831Z,99.99
2017-07-19T01:28:35.861Z,99.99
2017-07-19T01:29:35.887Z,99.99
2017-07-19T01:30:35.897Z,99.99
2017-07-19T01:31:35.629Z,99.99
2017-07-19T01:32:35.642Z,99.99
2017-07-19T01:33:35.987Z,99.99
2017-07-19T01:34:35.696Z,99.99
2017-07-19T01:36:36.057Z,99.99
2017-07-19T01:37:50.676Z,99.99
2017-07-19T01:38:35.794Z,99.99
2017-07-19T01:39:36.130Z,99.99
2017-07-19T01:40:36.152Z,99.99
2017-07-19T01:41:36.177Z,99.99
2017-07-19T01:42:36.189Z,99.99
2017-07-19T01:43:35.915Z,99.99
2017-07-19T01:44:35.946Z,99.99
2017-07-19T01:45:36.259Z,99.99
2017-07-19T01:46:36.301Z,99.99
2017-07-19T01:47:36.317Z,99.99
2017-07-19T01:48:36.345Z,99.99
2017-07-19T01:49:36.361Z,99.99
2017-07-19T01:50:36.381Z,99.99
2017-07-19T01:51:36.414Z,99.99
2017-07-19T01:52:36.441Z,99.99
2017-07-19T01:53:36.449Z,99.99
2017-07-19T01:54:36.490Z,99.99
2017-07-19T01:55:36.511Z,99.99
2017-07-19T01:56:36.565Z,99.99
2017-07-19T01:57:36.242Z,99.99
2017-07-19T01:58:36.592Z,99.99
2017-07-19T01:59:36.597Z,99.99
2017-07-19T02:00:36.624Z,99.99
2017-07-19T02:01:36.654Z,99.99
2017-07-19T02:02:36.683Z,99.99
2017-07-19T02:04:36.728Z,99.99
2017-07-19T02:05:36.752Z,99.99
2017-07-19T02:06:36.777Z,99.99
2017-07-19T02:07:36.802Z,99.99
2017-07-19T02:08:36.822Z,99.99
2017-07-19T02:09:51.445Z,99.99
2017-07-19T02:10:36.873Z,99.99
2017-07-19T02:11:36.881Z,99.99
2017-07-19T02:12:36.920Z,99.99
2017-07-19T02:13:36.942Z,99.99
2017-07-19T02:14:36.968Z,99.99
2017-07-19T02:16:37.011Z,99.99
2017-07-19T02:17:37.039Z,99.99
2017-07-19T02:18:37.061Z,99.99
2017-07-19T02:19:37.089Z,99.99
2017-07-19T02:20:37.102Z,99.99
2017-07-19T02:21:37.180Z,99.99
2017-07-19T02:22:37.162Z,99.99
2017-07-19T02:23:37.182Z,99.99
2017-07-19T02:24:37.196Z,99.99
2017-07-19T02:25:51.827Z,99.99
2017-07-19T02:26:37.252Z,99.99
2017-07-19T02:27:37.277Z,99.99
2017-07-19T02:30:37.338Z,99.99
2017-07-19T02:31:37.371Z,99.99
2017-07-19T02:33:37.106Z,99.99
2017-07-19T02:34:37.448Z,99.99
2017-07-19T02:35:37.456Z,99.99
2017-07-19T02:36:37.491Z,99.99
2017-07-19T02:37:37.511Z,99.99
2017-07-19T02:38:37.544Z,99.99
2017-07-19T02:39:37.560Z,99.99
2017-07-19T02:40:37.589Z,99.99
2017-07-19T02:41:52.208Z,99.99
2017-07-19T02:42:37.324Z,99.99
2017-07-19T02:43:37.655Z,99.99
2017-07-19T02:44:37.678Z,99.99
2017-07-19T02:45:37.698Z,99.99
2017-07-19T02:46:37.719Z,99.99
2017-07-19T02:47:37.761Z,99.99
2017-07-19T02:48:37.763Z,99.99
2017-07-19T02:49:37.799Z,99.99
2017-07-19T02:51:37.849Z,99.99
2017-07-19T02:52:37.559Z,99.99
2017-07-19T02:53:37.895Z,99.99
2017-07-19T02:54:37.919Z,99.99
2017-07-19T02:55:37.944Z,99.99
2017-07-19T02:56:37.967Z,99.99
2017-07-19T02:57:52.589Z,99.99
2017-07-19T02:58:38.014Z,99.99
2017-07-19T02:59:38.029Z,99.99
2017-07-19T03:00:38.066Z,99.99
2017-07-19T03:01:38.075Z,99.99
2017-07-19T03:02:37.806Z,99.99
2017-07-19T03:03:38.130Z,99.99
2017-07-19T03:04:38.168Z,99.99
2017-07-19T03:05:38.185Z,99.99
2017-07-19T03:06:38.199Z,99.99
2017-07-19T03:07:38.229Z,99.99
2017-07-19T03:08:38.244Z,99.99
2017-07-19T03:09:38.276Z,99.99
2017-07-19T03:10:38.293Z,99.99
2017-07-19T03:11:38.327Z,99.99
2017-07-19T03:12:52.944Z,99.99
2017-07-19T03:13:38.361Z,99.99
2017-07-19T03:14:38.392Z,99.99
2017-07-19T03:15:38.422Z,99.99
2017-07-19T03:16:38.443Z,99.99
2017-07-19T03:17:38.471Z,99.99
2017-07-19T03:18:38.488Z,99.99
2017-07-19T03:19:38.512Z,99.99
2017-07-19T03:20:38.536Z,99.99
2017-07-19T03:21:38.563Z,99.99
2017-07-19T03:22:38.583Z,99.99
2017-07-19T03:23:38.611Z,99.99
2017-07-19T03:25:38.657Z,99.99
2017-07-19T03:26:38.688Z,99.99
2017-07-19T03:27:38.699Z,99.99
2017-07-19T03:28:38.727Z,99.99
2017-07-19T03:29:38.752Z,99.99
2017-07-19T03:30:38.771Z,99.99
2017-07-19T03:31:38.800Z,99.99
2017-07-19T03:32:38.829Z,99.99
2017-07-19T03:33:38.842Z,99.99
2017-07-19T03:34:38.550Z,99.99
2017-07-19T03:35:38.879Z,99.99
2017-07-19T03:36:38.920Z,99.99
2017-07-19T03:37:38.954Z,99.99
2017-07-19T03:38:39.367Z,99.99
2017-07-19T03:39:38.976Z,99.99
2017-07-19T03:40:39.007Z,99.99
2017-07-19T03:41:38.726Z,99.99
2017-07-19T03:42:39.058Z,99.99
2017-07-19T03:43:39.079Z,99.99
2017-07-19T03:44:53.700Z,99.99
2017-07-19T03:45:39.117Z,99.99
2017-07-19T03:46:39.154Z,99.99
2017-07-19T03:47:39.174Z,99.99
2017-07-19T03:48:39.204Z,99.99
2017-07-19T03:49:39.214Z,99.99
2017-07-19T03:50:39.246Z,99.99
2017-07-19T03:51:39.258Z,99.99
2017-07-19T03:52:39.296Z,99.99
2017-07-19T03:53:39.308Z,99.99
2017-07-19T03:54:39.369Z,99.99
2017-07-19T03:55:39.367Z,99.99
2017-07-19T03:56:39.386Z,99.99
2017-07-19T03:57:39.103Z,99.99
2017-07-19T03:58:39.425Z,99.99
2017-07-19T03:59:39.462Z,99.99
2017-07-19T04:00:54.084Z,99.99
2017-07-19T04:01:39.508Z,99.99
2017-07-19T04:02:39.533Z,99.99
2017-07-19T04:03:39.557Z,99.99
2017-07-19T04:04:39.269Z,99.99
2017-07-19T04:05:39.595Z,99.99
2017-07-19T04:06:39.628Z,99.99
2017-07-19T04:07:39.642Z,99.99
2017-07-19T04:08:39.668Z,99.99
2017-07-19T04:09:39.707Z,99.99
2017-07-19T04:10:39.720Z,99.99
2017-07-19T04:11:39.751Z,99.99
2017-07-19T04:12:39.770Z,99.99
2017-07-19T04:13:39.803Z,99.99
2017-07-19T04:14:39.817Z,99.99
2017-07-19T04:15:39.845Z,99.99
2017-07-19T04:16:54.464Z,99.99
2017-07-19T04:17:39.889Z,99.99
2017-07-19T04:18:39.917Z,99.99
2017-07-19T04:20:39.969Z,99.99
2017-07-19T04:21:39.988Z,99.72
2017-07-19T04:22:40.014Z,98.72
2017-07-19T04:23:40.033Z,98.33
2017-07-19T04:25:40.080Z,97.95
2017-07-19T04:26:40.098Z,97.85
2017-07-19T04:27:40.120Z,97.8
2017-07-19T04:28:40.150Z,97.95
2017-07-19T04:29:40.189Z,97.42
2017-07-19T04:30:40.206Z,97.8
2017-07-19T04:31:40.231Z,98.76
2017-07-19T04:32:54.850Z,98.19
2017-07-19T04:33:40.289Z,98.24
2017-07-19T04:34:40.302Z,96.89
2017-07-19T04:35:40.334Z,96.51
2017-07-19T04:36:40.341Z,95.84
2017-07-19T04:37:40.361Z,95.84
2017-07-19T04:38:40.398Z,96.03
2017-07-19T04:39:40.425Z,96.32
2017-07-19T04:40:40.445Z,96.61
2017-07-19T04:41:40.477Z,96.13
2017-07-19T04:42:40.496Z,96.22
2017-07-19T04:43:40.517Z,96.18
2017-07-19T04:44:40.547Z,96.03
2017-07-19T04:45:40.566Z,94.26
2017-07-19T04:46:40.601Z,93.15
2017-07-19T04:47:55.219Z,91.42
2017-07-19T04:48:40.644Z,90.42
2017-07-19T04:49:40.659Z,87.58
2017-07-19T04:50:40.696Z,85.27
2017-07-19T04:52:40.738Z,79.85
2017-07-19T04:53:40.779Z,77.19
2017-07-19T04:54:40.805Z,74.18
2017-07-19T04:55:40.826Z,72.19
2017-07-19T04:56:40.838Z,70.52
2017-07-19T04:57:40.880Z,68.52
2017-07-19T04:58:40.944Z,67.21
2017-07-19T04:59:40.625Z,65.95
2017-07-19T05:00:40.961Z,65.27
2017-07-19T05:01:40.994Z,64.56
2017-07-19T05:03:41.054Z,62.37
2017-07-19T05:04:41.071Z,59.97
2017-07-19T05:05:41.105Z,60.36
2017-07-19T05:06:40.825Z,60.46
2017-07-19T05:07:40.858Z,59.39
2017-07-19T05:08:41.182Z,59.23
2017-07-19T05:09:41.228Z,58.39
2017-07-19T05:10:41.252Z,58.41
2017-07-19T05:11:41.292Z,56.28
2017-07-19T05:12:41.322Z,56.6
2017-07-19T05:13:41.349Z,56.01
2017-07-19T05:14:41.376Z,55.36
2017-07-19T05:15:41.414Z,52.86
2017-07-19T05:16:41.440Z,52.23
2017-07-19T05:17:41.481Z,51.94
2017-07-19T05:18:41.497Z,51.94
2017-07-19T05:19:56.139Z,51.36
2017-07-19T05:20:41.258Z,50.68
2017-07-19T05:21:41.612Z,51.07
2017-07-19T05:22:41.645Z,50.48
2017-07-19T05:23:41.663Z,50.9
2017-07-19T05:24:41.708Z,50.78
2017-07-19T05:25:41.739Z,50.21
2017-07-19T05:27:41.802Z,48.8
2017-07-19T05:28:41.528Z,47.53
2017-07-19T05:29:41.863Z,47.85
2017-07-19T05:30:41.906Z,47.66
2017-07-19T05:31:41.938Z,47.53
2017-07-19T05:32:41.975Z,47.73
2017-07-19T05:33:41.993Z,47.95
2017-07-19T05:34:42.044Z,46.88
2017-07-19T05:35:56.671Z,45.65
2017-07-19T05:36:42.111Z,46.83
2017-07-19T05:37:42.139Z,46.14
2017-07-19T05:38:42.185Z,44.8
2017-07-19T05:39:42.219Z,44.73
2017-07-19T05:41:42.277Z,44.14
2017-07-19T05:42:42.303Z,43.87
2017-07-19T05:43:42.353Z,44.65
2017-07-19T05:44:42.378Z,44.06
2017-07-19T05:45:42.122Z,44.16
2017-07-19T05:46:42.450Z,42.79
2017-07-19T05:47:42.497Z,42.91
2017-07-19T05:48:42.515Z,43.38
2017-07-19T05:49:42.243Z,42.79
2017-07-19T05:50:42.603Z,42.61
2017-07-19T05:51:57.235Z,43.59
2017-07-19T05:52:42.678Z,42.21
2017-07-19T05:53:42.713Z,43.2
2017-07-19T05:54:42.742Z,42.99
2017-07-19T05:55:42.774Z,42.79
2017-07-19T05:56:42.810Z,42.32
2017-07-19T05:57:42.845Z,42.71
2017-07-19T05:58:42.884Z,42.3
2017-07-19T05:59:42.907Z,42.22
2017-07-19T06:01:42.997Z,41.56
2017-07-19T06:02:43.028Z,41.78
2017-07-19T06:03:43.071Z,39.96
2017-07-19T06:04:43.087Z,40.23
2017-07-19T06:05:42.829Z,39.66
2017-07-19T06:06:43.165Z,39.56
2017-07-19T06:07:57.811Z,39.86
2017-07-19T06:08:43.244Z,40.72
2017-07-19T06:09:43.289Z,40.53
2017-07-19T06:10:43.327Z,39.66
2017-07-19T06:11:43.352Z,39.56
2017-07-19T06:12:43.398Z,39.49
2017-07-19T06:13:43.431Z,41
2017-07-19T06:14:43.468Z,40.88
2017-07-19T06:15:43.501Z,42.15
2017-07-19T06:16:43.547Z,41.74
2017-07-19T06:17:43.584Z,41.15
2017-07-19T06:18:43.605Z,40.41
2017-07-19T06:19:43.657Z,40.78
2017-07-19T06:20:43.683Z,40.78
2017-07-19T06:21:43.733Z,41.07
2017-07-19T06:22:58.365Z,40.7
2017-07-19T06:23:43.806Z,39.37
2017-07-19T06:24:43.838Z,38.39
2017-07-19T06:25:43.869Z,38.7
2017-07-19T06:26:43.921Z,40.06
2017-07-19T06:27:43.956Z,40.29
2017-07-19T06:28:43.986Z,41.07
2017-07-19T06:29:44.018Z,40.21
2017-07-19T06:30:44.045Z,39.72
2017-07-19T06:31:44.100Z,40.41
2017-07-19T06:32:44.126Z,40.58
2017-07-19T06:33:44.173Z,39.92
2017-07-19T06:34:44.204Z,39.25
2017-07-19T06:35:44.264Z,40.33
2017-07-19T06:36:44.300Z,39.54
2017-07-19T06:37:44.315Z,39.66
2017-07-19T06:38:44.359Z,39.86
2017-07-19T06:39:44.087Z,38.98
2017-07-19T06:41:44.468Z,38.41
2017-07-19T06:42:44.510Z,38.51
2017-07-19T06:44:44.586Z,36.96
2017-07-19T06:45:44.610Z,37.63
2017-07-19T06:46:44.659Z,39.27
2017-07-19T06:47:44.702Z,38.49
2017-07-19T06:48:44.721Z,38.23
2017-07-19T06:49:44.469Z,38.06
2017-07-19T06:50:44.817Z,36.21
2017-07-19T06:51:44.527Z,36.15
2017-07-19T06:52:44.887Z,36.05
2017-07-19T06:53:44.914Z,35.83
2017-07-19T06:54:59.561Z,36.01
2017-07-19T06:55:45.002Z,37.66
2017-07-19T06:56:45.034Z,37.17
2017-07-19T06:57:45.078Z,36.3
2017-07-19T06:58:45.102Z,37.09
2017-07-19T06:59:45.152Z,37.17
2017-07-19T07:00:44.877Z,37.94
2017-07-19T07:01:45.229Z,37.74
2017-07-19T07:02:45.259Z,38.41
2017-07-19T07:03:45.313Z,39
2017-07-19T07:04:45.351Z,38.62
2017-07-19T07:05:45.377Z,37.81
2017-07-19T07:06:45.422Z,38.02
2017-07-19T07:07:45.446Z,39.27
2017-07-19T07:08:45.500Z,38.88
2017-07-19T07:09:45.532Z,39.45
2017-07-19T07:11:00.172Z,38.96
2017-07-19T07:11:45.610Z,37.73
2017-07-19T07:12:45.648Z,37.54
2017-07-19T07:13:45.676Z,38.15
2017-07-19T07:14:45.712Z,37.35
2017-07-19T07:15:45.751Z,38.72
2017-07-19T07:16:45.801Z,37.38
2017-07-19T07:17:45.836Z,35.85
2017-07-19T07:18:45.875Z,35.85
2017-07-19T07:19:45.903Z,35.83
2017-07-19T07:20:45.956Z,37.66
2017-07-19T07:21:45.982Z,38.02
2017-07-19T07:22:45.720Z,37.13
2017-07-19T07:23:46.056Z,37.17
2017-07-19T07:24:46.102Z,38.27
2017-07-19T07:25:46.140Z,37.37
2017-07-19T07:27:00.780Z,35.85
2017-07-19T07:27:46.225Z,36.52
2017-07-19T07:29:45.984Z,36.05
2017-07-19T07:31:46.370Z,34.7
2017-07-19T07:32:46.404Z,35.59
2017-07-19T07:34:46.481Z,36.63
2017-07-19T07:35:46.524Z,36.01
2017-07-19T07:36:46.573Z,35.95
2017-07-19T07:37:46.584Z,36.3
2017-07-19T07:38:46.639Z,36.62
2017-07-19T07:39:46.665Z,37.37
2017-07-19T07:40:46.711Z,37.27
2017-07-19T07:41:46.760Z,38.76
2017-07-19T07:43:01.388Z,39.64
2017-07-19T07:43:46.825Z,38.9
2017-07-19T07:44:46.880Z,38.53
2017-07-19T07:45:46.900Z,35.46
2017-07-19T07:46:46.946Z,35.28
2017-07-19T07:47:46.971Z,34.11
2017-07-19T07:48:47.022Z,34.72
2017-07-19T07:49:47.065Z,34.53
2017-07-19T07:50:47.104Z,34.53
2017-07-19T07:51:47.139Z,33.46
2017-07-19T07:52:47.164Z,32.87
2017-07-19T07:53:47.215Z,32.39
2017-07-19T07:54:47.241Z,33.65
2017-07-19T07:55:46.981Z,33.26
2017-07-19T07:56:47.321Z,33.36
2017-07-19T07:58:01.967Z,34.53
2017-07-19T07:58:47.403Z,33.64
2017-07-19T07:59:47.428Z,34.13
2017-07-19T08:00:47.477Z,34.39
2017-07-19T08:01:47.501Z,33.92
2017-07-19T08:02:47.549Z,34.03
2017-07-19T08:03:47.637Z,32.36
2017-07-19T08:04:47.635Z,33.44
2017-07-19T08:05:47.670Z,34.82
2017-07-19T08:06:47.700Z,34.41
2017-07-19T08:07:47.744Z,34.41
2017-07-19T08:08:47.774Z,33.05
2017-07-19T08:09:47.814Z,32.93
2017-07-19T08:10:47.843Z,34.69
2017-07-19T08:11:47.898Z,34.3
2017-07-19T08:12:47.929Z,34.99
2017-07-19T08:13:47.976Z,34.59
2017-07-19T08:14:48.001Z,34.41
2017-07-19T08:15:48.050Z,33.74
2017-07-19T08:16:48.072Z,33.54
2017-07-19T08:17:48.125Z,34.43
2017-07-19T08:18:48.148Z,35.31
2017-07-19T08:20:48.235Z,35.54
2017-07-19T08:21:48.275Z,35.85
2017-07-19T08:22:48.003Z,34.78
2017-07-19T08:23:48.044Z,33.94
2017-07-19T08:24:48.395Z,35.51
2017-07-19T08:25:48.416Z,35.41
2017-07-19T08:26:48.456Z,33.94
2017-07-19T08:27:48.506Z,33.25
2017-07-19T08:28:48.531Z,34.54
2017-07-19T08:30:03.183Z,34.51
2017-07-19T08:30:48.614Z,36.13
2017-07-19T08:31:48.649Z,37.65
2017-07-19T08:32:48.681Z,39.07
2017-07-19T08:33:48.722Z,38.31
2017-07-19T08:34:48.769Z,38.7
2017-07-19T08:35:48.806Z,36.57
2017-07-19T08:36:48.837Z,38.37
2017-07-19T08:37:48.876Z,37.5
2017-07-19T08:38:48.920Z,35.93
2017-07-19T08:40:48.994Z,34.18
2017-07-19T08:41:49.026Z,35.38
2017-07-19T08:42:49.050Z,34.99
2017-07-19T08:43:49.088Z,36.72
2017-07-19T08:44:49.137Z,35.33
2017-07-19T08:46:03.775Z,35.06
2017-07-19T08:46:49.215Z,34.38
2017-07-19T08:47:49.257Z,35.87
2017-07-19T08:49:49.324Z,34.95
2017-07-19T08:50:49.358Z,36.15
2017-07-19T08:51:49.397Z,35.08
2017-07-19T08:52:49.435Z,36.67
2017-07-19T08:53:49.461Z,35.02
2017-07-19T08:56:49.586Z,34.13
2017-07-19T08:57:49.641Z,35.11
2017-07-19T08:58:49.657Z,34.99
2017-07-19T08:59:49.685Z,36.21
2017-07-19T09:00:49.715Z,36.09
2017-07-19T09:02:04.367Z,36.11
2017-07-19T09:02:49.791Z,35.18
2017-07-19T09:03:49.836Z,34.31
2017-07-19T09:04:49.877Z,34.03
2017-07-19T09:05:49.900Z,33.56
2017-07-19T09:06:49.951Z,32.18
2017-07-19T09:07:49.995Z,32.89
2017-07-19T09:08:50.017Z,33.86
2017-07-19T09:09:50.069Z,32.46
2017-07-19T09:10:50.091Z,34.46
2017-07-19T09:11:50.133Z,34.34
2017-07-19T09:12:50.166Z,32.26
2017-07-19T09:13:50.203Z,33.25
2017-07-19T09:15:49.965Z,32.97
2017-07-19T09:16:50.316Z,33.97
2017-07-19T09:18:04.953Z,33.38
2017-07-19T09:19:50.427Z,32.1
2017-07-19T09:20:50.147Z,33.28
2017-07-19T09:21:50.494Z,33.54
2017-07-19T09:22:50.540Z,33.64
2017-07-19T09:23:50.563Z,30.83
2017-07-19T09:24:50.598Z,32.9
2017-07-19T09:25:50.632Z,31.09
2017-07-19T09:26:50.697Z,31.88
2017-07-19T09:29:50.794Z,34.72
2017-07-19T09:30:50.828Z,33.84
2017-07-19T09:31:50.860Z,34.05
2017-07-19T09:33:05.497Z,33.26
2017-07-19T09:33:50.941Z,33.41
2017-07-19T09:34:50.960Z,31.24
2017-07-19T09:35:51.008Z,32.42
2017-07-19T09:36:51.036Z,33.36
2017-07-19T09:37:51.086Z,34.38
2017-07-19T09:38:50.800Z,32.9
2017-07-19T09:39:51.152Z,31.42
2017-07-19T09:40:51.198Z,33.38
2017-07-19T09:41:51.228Z,34.46
2017-07-19T09:43:51.295Z,33.05
2017-07-19T09:44:51.324Z,34.53
2017-07-19T09:45:51.367Z,32.56
2017-07-19T09:46:51.408Z,32.26
2017-07-19T09:47:51.434Z,33.25
2017-07-19T09:48:51.474Z,33.15
2017-07-19T09:49:51.500Z,32.46
2017-07-19T09:50:51.542Z,34.44
2017-07-19T09:51:51.578Z,33.34
2017-07-19T09:52:51.673Z,32.95
2017-07-19T09:53:51.350Z,32.59
2017-07-19T09:54:51.690Z,31.8
2017-07-19T09:55:51.712Z,31.32
2017-07-19T09:56:51.760Z,32.1
2017-07-19T09:57:51.794Z,33.07
2017-07-19T09:58:51.835Z,32.97
2017-07-19T09:59:51.872Z,33.94
2017-07-19T10:00:51.892Z,33.05
2017-07-19T10:01:51.939Z,32.95
2017-07-19T10:02:51.970Z,31.98
2017-07-19T10:03:52.008Z,32.69
2017-07-19T10:05:06.643Z,32.89
2017-07-19T10:05:52.072Z,33.07
2017-07-19T10:06:52.097Z,31.88
2017-07-19T10:07:52.147Z,33.44
2017-07-19T10:08:52.183Z,33.61
2017-07-19T10:09:52.223Z,33.22
2017-07-19T10:10:52.249Z,33.39
2017-07-19T10:11:52.287Z,34.1
2017-07-19T10:12:52.314Z,34.39
2017-07-19T10:13:52.349Z,33.22
2017-07-19T10:15:52.419Z,33.59
2017-07-19T10:16:52.463Z,34.18
2017-07-19T10:17:52.490Z,32.43
2017-07-19T10:18:52.533Z,32.92
2017-07-19T10:19:52.554Z,32.72
2017-07-19T10:21:07.201Z,32.92
2017-07-19T10:21:52.637Z,32.92
2017-07-19T10:22:52.675Z,31.84
2017-07-19T10:23:52.701Z,32.72
2017-07-19T10:24:52.737Z,34.08
2017-07-19T10:26:52.498Z,34.49
2017-07-19T10:27:52.860Z,33.23
2017-07-19T10:28:52.875Z,33.43
2017-07-19T10:29:52.918Z,34.01
2017-07-19T10:30:52.948Z,33.91
2017-07-19T10:31:52.976Z,33
2017-07-19T10:32:53.024Z,33.26
2017-07-19T10:34:53.085Z,35.68
2017-07-19T10:35:52.815Z,34.51
2017-07-19T10:37:07.753Z,36.96
2017-07-19T10:37:53.183Z,36.53
2017-07-19T10:38:53.234Z,37.12
2017-07-19T10:39:53.254Z,37.59
2017-07-19T10:40:53.290Z,37.77
2017-07-19T10:41:53.314Z,38.43
2017-07-19T10:42:53.365Z,38.32
2017-07-19T10:43:53.389Z,41.15
2017-07-19T10:44:53.431Z,42.05
2017-07-19T10:45:53.457Z,39.33
2017-07-19T10:46:53.508Z,39.33
2017-07-19T10:47:53.518Z,38.06
2017-07-19T10:48:53.573Z,39.33
2017-07-19T10:49:53.604Z,38.35
2017-07-19T10:50:53.622Z,38.65
2017-07-19T10:51:53.676Z,39.53
2017-07-19T10:53:08.301Z,39.04
2017-07-19T10:53:53.730Z,38.86
2017-07-19T10:54:53.760Z,39.14
2017-07-19T10:55:53.802Z,38.65
2017-07-19T10:56:53.840Z,39.8
2017-07-19T10:57:53.863Z,39.12
2017-07-19T10:58:53.892Z,40.17
2017-07-19T10:59:53.942Z,40.17
2017-07-19T11:00:53.962Z,40.74
2017-07-19T11:01:54.010Z,41.52
2017-07-19T11:02:54.039Z,41.99
2017-07-19T11:03:54.087Z,42.77
2017-07-19T11:04:54.105Z,40.16
2017-07-19T11:05:54.138Z,41.5
2017-07-19T11:06:54.172Z,41.99
2017-07-19T11:08:08.809Z,41.62
2017-07-19T11:08:54.239Z,42.21
2017-07-19T11:09:54.268Z,42.99
2017-07-19T11:10:53.996Z,41.74
2017-07-19T11:11:54.327Z,42.69
2017-07-19T11:12:54.361Z,41.82
2017-07-19T11:13:54.418Z,42.89
2017-07-19T11:14:54.442Z,42.99
2017-07-19T11:15:54.473Z,44.14
2017-07-19T11:16:54.490Z,42.97
2017-07-19T11:17:54.537Z,44.04
2017-07-19T11:18:54.563Z,43.92
2017-07-19T11:19:54.604Z,43.04
2017-07-19T11:20:54.623Z,44.31
2017-07-19T11:21:54.665Z,44.12
2017-07-19T11:22:54.700Z,44.87
2017-07-19T11:23:54.740Z,44.58
2017-07-19T11:24:54.765Z,44.19
2017-07-19T11:25:54.796Z,43.51
2017-07-19T11:26:54.834Z,43.71
2017-07-19T11:27:54.869Z,44.38
2017-07-19T11:28:54.891Z,45.87
2017-07-19T11:29:54.936Z,44.12
2017-07-19T11:30:54.960Z,43.55
2017-07-19T11:32:09.594Z,43.65
2017-07-19T11:32:55.029Z,44.14
2017-07-19T11:33:55.065Z,43.75
2017-07-19T11:34:55.095Z,44.34
2017-07-19T11:35:55.112Z,42.4
2017-07-19T11:36:55.155Z,42.52
2017-07-19T11:38:54.909Z,43.63
2017-07-19T11:40:09.852Z,45.48
2017-07-19T11:40:55.286Z,43.55
2017-07-19T11:41:55.321Z,44.34
2017-07-19T11:42:55.346Z,43.46
2017-07-19T11:43:55.384Z,44.02
2017-07-19T11:44:55.407Z,44.7
2017-07-19T11:46:55.478Z,44.31
2017-07-19T11:47:55.206Z,45.65
2017-07-19T11:48:55.537Z,45.56
2017-07-19T11:49:55.566Z,45.56
2017-07-19T11:50:55.611Z,44.21
2017-07-19T11:51:55.643Z,46.36
2017-07-19T11:52:55.664Z,44.34
2017-07-19T11:53:55.392Z,44.34
2017-07-19T11:54:55.724Z,43.55
2017-07-19T11:56:10.370Z,45.51
2017-07-19T11:57:55.836Z,44.45
2017-07-19T11:58:55.865Z,45.53
2017-07-19T11:59:55.579Z,43.08
2017-07-19T12:00:55.933Z,43.67
2017-07-19T12:01:55.949Z,43.65
2017-07-19T12:02:55.998Z,44.41
2017-07-19T12:03:56.014Z,44.6
2017-07-19T12:04:56.064Z,44.9
2017-07-19T12:05:56.083Z,45.7
2017-07-19T12:06:56.132Z,45.12
2017-07-19T12:07:56.145Z,47.17
2017-07-19T12:08:55.887Z,44.74
2017-07-19T12:09:56.216Z,43.87
2017-07-19T12:10:56.249Z,44.35
2017-07-19T12:12:10.883Z,44.45
2017-07-19T12:12:56.303Z,44.09
2017-07-19T12:13:56.344Z,43.01
2017-07-19T12:14:56.375Z,42.35
2017-07-19T12:15:56.106Z,43.3
2017-07-19T12:16:56.440Z,44.3
2017-07-19T12:17:56.474Z,43.03
2017-07-19T12:18:56.520Z,43.32
2017-07-19T12:19:56.535Z,43.52
2017-07-19T12:20:56.558Z,43.73
2017-07-19T12:21:56.606Z,42.46
2017-07-19T12:22:56.629Z,41.68
2017-07-19T12:23:56.654Z,43.03
2017-07-19T12:24:56.694Z,43.03
2017-07-19T12:26:56.763Z,43.32
2017-07-19T12:28:11.391Z,43.89
2017-07-19T12:28:56.520Z,43.99
2017-07-19T12:29:56.857Z,44.28
2017-07-19T12:30:56.891Z,43.69
2017-07-19T12:31:56.928Z,43.01
2017-07-19T12:32:56.952Z,44.57
2017-07-19T12:33:57.002Z,43.3
2017-07-19T12:34:57.027Z,43.13
2017-07-19T12:36:57.097Z,43.81
2017-07-19T12:37:57.122Z,42.83
2017-07-19T12:38:56.838Z,42.64
2017-07-19T12:39:56.871Z,44.2
2017-07-19T12:40:57.205Z,43.34
2017-07-19T12:41:56.938Z,42.85
2017-07-19T12:43:11.881Z,42.07
2017-07-19T12:43:57.317Z,43.05
2017-07-19T12:44:57.035Z,42.07
2017-07-19T12:45:57.381Z,43.73
2017-07-19T12:46:57.392Z,43.76
2017-07-19T12:47:57.442Z,42.38
2017-07-19T12:48:57.466Z,43.73
2017-07-19T12:49:57.496Z,43.84
2017-07-19T12:50:57.537Z,42.95
2017-07-19T12:51:57.577Z,43.63
2017-07-19T12:52:57.594Z,43.63
2017-07-19T12:53:57.634Z,43.81
2017-07-19T12:54:57.654Z,44.57
2017-07-19T12:55:57.706Z,44.26
2017-07-19T12:56:57.721Z,45.33
2017-07-19T12:57:57.763Z,47.46
2017-07-19T12:58:57.784Z,45.21
2017-07-19T12:59:57.832Z,45.12
2017-07-19T13:00:57.863Z,44.94
2017-07-19T13:01:57.888Z,45.7
2017-07-19T13:02:57.911Z,45.61
2017-07-19T13:03:57.954Z,46.68
2017-07-19T13:04:57.987Z,46.09
2017-07-19T13:05:58.019Z,44.34
2017-07-19T13:06:58.057Z,44.63
2017-07-19T13:07:58.082Z,45.12
2017-07-19T13:08:58.124Z,44.74
2017-07-19T13:09:58.150Z,44.84
2017-07-19T13:10:58.173Z,46.29
2017-07-19T13:11:58.207Z,46.78
2017-07-19T13:12:58.242Z,47.24
2017-07-19T13:13:58.269Z,47.34
2017-07-19T13:15:12.906Z,46.95
2017-07-19T13:15:58.023Z,47.07
2017-07-19T13:16:58.372Z,46.09
2017-07-19T13:17:58.397Z,46.29
2017-07-19T13:18:58.433Z,45.9
2017-07-19T13:19:58.472Z,46.11
2017-07-19T13:20:58.496Z,44.84
2017-07-19T13:22:58.559Z,44.38
2017-07-19T13:23:58.594Z,46.21
2017-07-19T13:24:58.617Z,44.77
2017-07-19T13:25:58.653Z,46.14
2017-07-19T13:26:58.677Z,44.87
2017-07-19T13:27:58.710Z,44.48
2017-07-19T13:28:58.747Z,45.43
2017-07-19T13:29:58.783Z,44.67
2017-07-19T13:31:13.415Z,45.04
2017-07-19T13:31:58.841Z,45.61
2017-07-19T13:32:58.878Z,46.19
2017-07-19T13:33:58.905Z,46.68
2017-07-19T13:34:58.943Z,45.97
2017-07-19T13:35:58.662Z,45.87
2017-07-19T13:36:59.013Z,45.8
2017-07-19T13:37:59.041Z,46.48
2017-07-19T13:38:59.059Z,46.58
2017-07-19T13:40:59.139Z,48.73
2017-07-19T13:41:59.166Z,47.56
2017-07-19T13:42:59.205Z,47.34